sensor_id;sensor_type;location;lat;lon;timestamp;P1;durP1;ratioP1;P2;durP2;ratioP2
29246;SDS011;16272;48.188;9.964;2022-11-15T00:01:26;8.50;;;2.70;;
29246;SDS011;16272;48.188;9.964;2022-11-15T00:03:51;8.30;;;2.83;;
29246;SDS011;16272;48.188;9.964;2022-11-15T00:06:17;8.00;;;2.70;;
29246;SDS011;16272;48.188;9.964;2022-11-15T00:08:42;7.40;;;2.13;;
29246;SDS011;16272;48.188;9.964;2022-11-15T00:11:08;7.13;;;2.50;;
29246;SDS011;16272;48.188;9.964;2022-11-15T00:13:35;8.90;;;3.08;;
29246;SDS011;16272;48.188;9.964;2022-11-15T00:16:00;10.90;;;3.50;;
29246;SDS011;16272;48.188;9.964;2022-11-15T00:18:26;10.35;;;3.30;;
29246;SDS011;16272;48.188;9.964;2022-11-15T00:20:52;8.23;;;2.80;;
29246;SDS011;16272;48.188;9.964;2022-11-15T00:23:17;9.97;;;3.17;;
29246;SDS011;16272;48.188;9.964;2022-11-15T00:25:43;8.80;;;3.37;;
29246;SDS011;16272;48.188;9.964;2022-11-15T00:28:08;9.67;;;3.37;;
29246;SDS011;16272;48.188;9.964;2022-11-15T00:30:33;10.27;;;3.50;;
29246;SDS011;16272;48.188;9.964;2022-11-15T00:33:03;10.63;;;3.60;;
29246;SDS011;16272;48.188;9.964;2022-11-15T00:35:31;8.07;;;3.40;;
29246;SDS011;16272;48.188;9.964;2022-11-15T00:37:58;9.38;;;3.30;;
29246;SDS011;16272;48.188;9.964;2022-11-15T00:40:24;8.30;;;3.13;;
29246;SDS011;16272;48.188;9.964;2022-11-15T00:42:49;8.80;;;3.10;;
29246;SDS011;16272;48.188;9.964;2022-11-15T00:45:14;10.53;;;3.23;;
29246;SDS011;16272;48.188;9.964;2022-11-15T00:47:40;9.40;;;3.57;;
29246;SDS011;16272;48.188;9.964;2022-11-15T00:50:05;8.45;;;2.95;;
29246;SDS011;16272;48.188;9.964;2022-11-15T00:52:31;8.63;;;2.80;;
29246;SDS011;16272;48.188;9.964;2022-11-15T00:54:56;8.83;;;3.43;;
29246;SDS011;16272;48.188;9.964;2022-11-15T00:57:22;10.17;;;3.47;;
29246;SDS011;16272;48.188;9.964;2022-11-15T00:59:47;8.82;;;3.22;;
29246;SDS011;16272;48.188;9.964;2022-11-15T01:02:12;8.27;;;3.17;;
29246;SDS011;16272;48.188;9.964;2022-11-15T01:04:38;9.43;;;3.43;;
29246;SDS011;16272;48.188;9.964;2022-11-15T01:07:03;9.63;;;3.63;;
29246;SDS011;16272;48.188;9.964;2022-11-15T01:09:28;9.60;;;3.60;;
29246;SDS011;16272;48.188;9.964;2022-11-15T01:11:53;9.97;;;3.23;;
29246;SDS011;16272;48.188;9.964;2022-11-15T01:14:19;10.20;;;3.40;;
29246;SDS011;16272;48.188;9.964;2022-11-15T01:16:44;11.00;;;3.80;;
29246;SDS011;16272;48.188;9.964;2022-11-15T01:19:09;9.83;;;3.20;;
29246;SDS011;16272;48.188;9.964;2022-11-15T01:21:35;9.48;;;3.30;;
29246;SDS011;16272;48.188;9.964;2022-11-15T01:24:00;9.33;;;3.40;;
29246;SDS011;16272;48.188;9.964;2022-11-15T01:26:25;9.53;;;3.50;;
29246;SDS011;16272;48.188;9.964;2022-11-15T01:28:51;10.50;;;3.97;;
29246;SDS011;16272;48.188;9.964;2022-11-15T01:31:18;10.60;;;3.65;;
29246;SDS011;16272;48.188;9.964;2022-11-15T01:33:46;11.32;;;3.50;;
29246;SDS011;16272;48.188;9.964;2022-11-15T01:36:16;10.27;;;3.67;;
29246;SDS011;16272;48.188;9.964;2022-11-15T01:38:44;11.27;;;4.20;;
29246;SDS011;16272;48.188;9.964;2022-11-15T01:41:16;9.98;;;3.78;;
29246;SDS011;16272;48.188;9.964;2022-11-15T01:43:43;9.95;;;3.60;;
29246;SDS011;16272;48.188;9.964;2022-11-15T01:46:15;9.10;;;3.60;;
29246;SDS011;16272;48.188;9.964;2022-11-15T01:48:43;10.45;;;3.78;;
29246;SDS011;16272;48.188;9.964;2022-11-15T01:51:09;9.33;;;3.50;;
29246;SDS011;16272;48.188;9.964;2022-11-15T01:53:38;9.55;;;3.33;;
29246;SDS011;16272;48.188;9.964;2022-11-15T01:56:08;9.00;;;3.70;;
29246;SDS011;16272;48.188;9.964;2022-11-15T01:58:38;8.60;;;2.80;;
29246;SDS011;16272;48.188;9.964;2022-11-15T02:01:06;8.35;;;3.38;;
29246;SDS011;16272;48.188;9.964;2022-11-15T02:03:34;8.40;;;3.17;;
29246;SDS011;16272;48.188;9.964;2022-11-15T02:06:07;8.30;;;2.87;;
29246;SDS011;16272;48.188;9.964;2022-11-15T02:08:33;7.32;;;2.65;;
29246;SDS011;16272;48.188;9.964;2022-11-15T02:10:58;7.93;;;2.90;;
29246;SDS011;16272;48.188;9.964;2022-11-15T02:13:23;7.83;;;2.80;;
29246;SDS011;16272;48.188;9.964;2022-11-15T02:18:28;10.10;;;2.67;;
29246;SDS011;16272;48.188;9.964;2022-11-15T02:24:25;8.02;;;2.60;;
29246;SDS011;16272;48.188;9.964;2022-11-15T02:30:00;9.40;;;2.90;;
29246;SDS011;16272;48.188;9.964;2022-11-15T02:32:44;9.02;;;2.63;;
29246;SDS011;16272;48.188;9.964;2022-11-15T02:38:24;9.55;;;2.88;;
29246;SDS011;16272;48.188;9.964;2022-11-15T02:41:11;8.82;;;2.58;;
29246;SDS011;16272;48.188;9.964;2022-11-15T02:49:38;8.65;;;3.05;;
29246;SDS011;16272;48.188;9.964;2022-11-15T02:52:07;8.00;;;2.55;;
29246;SDS011;16272;48.188;9.964;2022-11-15T02:54:33;8.00;;;2.90;;
29246;SDS011;16272;48.188;9.964;2022-11-15T02:57:00;7.65;;;2.80;;
29246;SDS011;16272;48.188;9.964;2022-11-15T03:11:26;8.55;;;3.03;;
29246;SDS011;16272;48.188;9.964;2022-11-15T03:22:03;9.98;;;2.92;;
29246;SDS011;16272;48.188;9.964;2022-11-15T03:24:31;9.00;;;3.10;;
29246;SDS011;16272;48.188;9.964;2022-11-15T03:27:01;7.50;;;2.67;;
29246;SDS011;16272;48.188;9.964;2022-11-15T03:29:32;8.13;;;2.63;;
29246;SDS011;16272;48.188;9.964;2022-11-15T03:32:07;8.67;;;2.97;;
29246;SDS011;16272;48.188;9.964;2022-11-15T03:34:58;7.38;;;2.70;;
29246;SDS011;16272;48.188;9.964;2022-11-15T03:40:36;7.93;;;2.65;;
29246;SDS011;16272;48.188;9.964;2022-11-15T03:43:10;9.55;;;2.90;;
29246;SDS011;16272;48.188;9.964;2022-11-15T03:45:52;8.40;;;3.10;;
29246;SDS011;16272;48.188;9.964;2022-11-15T03:48:25;8.02;;;2.97;;
29246;SDS011;16272;48.188;9.964;2022-11-15T03:50:55;8.68;;;3.28;;
29246;SDS011;16272;48.188;9.964;2022-11-15T03:53:21;8.27;;;2.75;;
29246;SDS011;16272;48.188;9.964;2022-11-15T03:55:46;8.03;;;2.40;;
29246;SDS011;16272;48.188;9.964;2022-11-15T03:58:12;9.37;;;2.90;;
29246;SDS011;16272;48.188;9.964;2022-11-15T04:00:37;8.53;;;3.00;;
29246;SDS011;16272;48.188;9.964;2022-11-15T04:03:03;8.27;;;3.03;;
29246;SDS011;16272;48.188;9.964;2022-11-15T04:05:28;8.27;;;3.00;;
29246;SDS011;16272;48.188;9.964;2022-11-15T04:07:53;8.73;;;2.90;;
29246;SDS011;16272;48.188;9.964;2022-11-15T04:10:19;9.20;;;2.70;;
29246;SDS011;16272;48.188;9.964;2022-11-15T04:12:44;7.67;;;2.70;;
29246;SDS011;16272;48.188;9.964;2022-11-15T04:15:13;8.45;;;2.83;;
29246;SDS011;16272;48.188;9.964;2022-11-15T04:17:45;7.15;;;2.63;;
29246;SDS011;16272;48.188;9.964;2022-11-15T04:26:04;7.57;;;2.70;;
29246;SDS011;16272;48.188;9.964;2022-11-15T04:28:32;7.80;;;2.80;;
29246;SDS011;16272;48.188;9.964;2022-11-15T04:30:57;7.93;;;2.63;;
29246;SDS011;16272;48.188;9.964;2022-11-15T04:33:23;8.47;;;2.33;;
29246;SDS011;16272;48.188;9.964;2022-11-15T04:35:48;7.30;;;2.42;;
29246;SDS011;16272;48.188;9.964;2022-11-15T04:38:32;7.53;;;2.63;;
29246;SDS011;16272;48.188;9.964;2022-11-15T04:40:58;9.10;;;2.90;;
29246;SDS011;16272;48.188;9.964;2022-11-15T04:43:24;8.50;;;2.33;;
29246;SDS011;16272;48.188;9.964;2022-11-15T04:45:49;8.10;;;2.80;;
29246;SDS011;16272;48.188;9.964;2022-11-15T04:48:14;8.10;;;2.70;;
29246;SDS011;16272;48.188;9.964;2022-11-15T04:50:39;8.67;;;2.70;;
29246;SDS011;16272;48.188;9.964;2022-11-15T04:53:05;7.73;;;2.70;;
29246;SDS011;16272;48.188;9.964;2022-11-15T04:55:30;8.77;;;2.90;;
29246;SDS011;16272;48.188;9.964;2022-11-15T04:58:00;7.80;;;2.60;;
29246;SDS011;16272;48.188;9.964;2022-11-15T05:00:26;7.15;;;2.33;;
29246;SDS011;16272;48.188;9.964;2022-11-15T05:02:53;8.15;;;2.53;;
29246;SDS011;16272;48.188;9.964;2022-11-15T05:05:37;7.38;;;2.63;;
29246;SDS011;16272;48.188;9.964;2022-11-15T05:08:03;10.27;;;2.67;;
29246;SDS011;16272;48.188;9.964;2022-11-15T05:10:29;8.20;;;2.50;;
29246;SDS011;16272;48.188;9.964;2022-11-15T05:12:54;8.47;;;2.33;;
29246;SDS011;16272;48.188;9.964;2022-11-15T05:15:20;6.00;;;1.67;;
29246;SDS011;16272;48.188;9.964;2022-11-15T05:17:45;8.70;;;2.10;;
29246;SDS011;16272;48.188;9.964;2022-11-15T05:20:10;8.30;;;2.42;;
29246;SDS011;16272;48.188;9.964;2022-11-15T05:22:36;7.67;;;2.40;;
29246;SDS011;16272;48.188;9.964;2022-11-15T05:25:01;6.43;;;2.20;;
29246;SDS011;16272;48.188;9.964;2022-11-15T05:27:27;6.90;;;2.15;;
29246;SDS011;16272;48.188;9.964;2022-11-15T05:29:53;9.23;;;2.30;;
29246;SDS011;16272;48.188;9.964;2022-11-15T05:32:18;7.07;;;2.30;;
29246;SDS011;16272;48.188;9.964;2022-11-15T05:34:43;8.35;;;2.67;;
29246;SDS011;16272;48.188;9.964;2022-11-15T05:37:10;6.27;;;1.97;;
29246;SDS011;16272;48.188;9.964;2022-11-15T05:39:35;8.10;;;2.40;;
29246;SDS011;16272;48.188;9.964;2022-11-15T05:42:10;6.93;;;2.10;;
29246;SDS011;16272;48.188;9.964;2022-11-15T05:44:39;7.73;;;2.50;;
29246;SDS011;16272;48.188;9.964;2022-11-15T05:47:09;6.80;;;2.38;;
29246;SDS011;16272;48.188;9.964;2022-11-15T05:49:39;9.50;;;2.55;;
29246;SDS011;16272;48.188;9.964;2022-11-15T05:52:09;7.72;;;2.42;;
29246;SDS011;16272;48.188;9.964;2022-11-15T05:54:36;6.72;;;2.25;;
29246;SDS011;16272;48.188;9.964;2022-11-15T05:57:03;7.37;;;2.40;;
29246;SDS011;16272;48.188;9.964;2022-11-15T05:59:29;8.35;;;2.40;;
29246;SDS011;16272;48.188;9.964;2022-11-15T06:01:55;8.15;;;2.10;;
29246;SDS011;16272;48.188;9.964;2022-11-15T06:04:21;7.00;;;2.40;;
29246;SDS011;16272;48.188;9.964;2022-11-15T06:06:46;10.15;;;2.33;;
29246;SDS011;16272;48.188;9.964;2022-11-15T06:09:12;6.83;;;2.10;;
29246;SDS011;16272;48.188;9.964;2022-11-15T06:11:37;8.33;;;2.60;;
29246;SDS011;16272;48.188;9.964;2022-11-15T06:14:02;8.40;;;2.30;;
29246;SDS011;16272;48.188;9.964;2022-11-15T06:16:28;8.83;;;3.13;;
29246;SDS011;16272;48.188;9.964;2022-11-15T06:18:53;7.87;;;3.07;;
29246;SDS011;16272;48.188;9.964;2022-11-15T06:21:18;7.13;;;2.67;;
29246;SDS011;16272;48.188;9.964;2022-11-15T06:23:44;7.50;;;2.50;;
29246;SDS011;16272;48.188;9.964;2022-11-15T06:26:09;10.83;;;4.00;;
29246;SDS011;16272;48.188;9.964;2022-11-15T06:28:34;8.43;;;2.80;;
29246;SDS011;16272;48.188;9.964;2022-11-15T06:31:09;9.63;;;2.60;;
29246;SDS011;16272;48.188;9.964;2022-11-15T06:33:38;7.80;;;2.50;;
29246;SDS011;16272;48.188;9.964;2022-11-15T06:36:05;10.02;;;2.55;;
29246;SDS011;16272;48.188;9.964;2022-11-15T06:38:32;8.48;;;2.45;;
29246;SDS011;16272;48.188;9.964;2022-11-15T06:41:05;8.00;;;2.23;;
29246;SDS011;16272;48.188;9.964;2022-11-15T06:43:33;9.02;;;2.33;;
29246;SDS011;16272;48.188;9.964;2022-11-15T06:46:00;7.47;;;2.40;;
29246;SDS011;16272;48.188;9.964;2022-11-15T06:48:27;7.50;;;2.45;;
29246;SDS011;16272;48.188;9.964;2022-11-15T06:50:54;8.45;;;2.33;;
29246;SDS011;16272;48.188;9.964;2022-11-15T06:53:23;8.97;;;2.60;;
29246;SDS011;16272;48.188;9.964;2022-11-15T06:55:50;6.97;;;2.40;;
29246;SDS011;16272;48.188;9.964;2022-11-15T06:58:15;8.57;;;2.90;;
29246;SDS011;16272;48.188;9.964;2022-11-15T07:00:41;9.48;;;2.88;;
29246;SDS011;16272;48.188;9.964;2022-11-15T07:03:12;9.10;;;2.80;;
29246;SDS011;16272;48.188;9.964;2022-11-15T07:05:39;8.23;;;3.00;;
29246;SDS011;16272;48.188;9.964;2022-11-15T07:08:04;8.98;;;2.60;;
29246;SDS011;16272;48.188;9.964;2022-11-15T07:10:29;8.33;;;3.20;;
29246;SDS011;16272;48.188;9.964;2022-11-15T07:12:55;8.77;;;2.87;;
29246;SDS011;16272;48.188;9.964;2022-11-15T07:15:22;7.70;;;2.63;;
29246;SDS011;16272;48.188;9.964;2022-11-15T07:17:49;8.20;;;2.60;;
29246;SDS011;16272;48.188;9.964;2022-11-15T07:20:14;9.00;;;2.77;;
29246;SDS011;16272;48.188;9.964;2022-11-15T07:22:40;8.00;;;2.53;;
29246;SDS011;16272;48.188;9.964;2022-11-15T07:25:05;8.77;;;3.13;;
29246;SDS011;16272;48.188;9.964;2022-11-15T07:27:31;9.37;;;3.27;;
29246;SDS011;16272;48.188;9.964;2022-11-15T07:29:57;9.50;;;3.47;;
29246;SDS011;16272;48.188;9.964;2022-11-15T07:32:22;9.80;;;3.43;;
29246;SDS011;16272;48.188;9.964;2022-11-15T07:34:47;9.63;;;3.47;;
29246;SDS011;16272;48.188;9.964;2022-11-15T07:37:13;11.07;;;3.93;;
29246;SDS011;16272;48.188;9.964;2022-11-15T07:39:38;10.23;;;3.47;;
29246;SDS011;16272;48.188;9.964;2022-11-15T07:42:03;11.00;;;3.30;;
29246;SDS011;16272;48.188;9.964;2022-11-15T07:44:47;8.55;;;3.03;;
29246;SDS011;16272;48.188;9.964;2022-11-15T07:47:12;9.07;;;3.30;;
29246;SDS011;16272;48.188;9.964;2022-11-15T07:49:38;9.23;;;3.77;;
29246;SDS011;16272;48.188;9.964;2022-11-15T07:52:03;8.00;;;2.90;;
29246;SDS011;16272;48.188;9.964;2022-11-15T07:54:28;7.40;;;2.65;;
29246;SDS011;16272;48.188;9.964;2022-11-15T07:56:54;9.37;;;3.10;;
29246;SDS011;16272;48.188;9.964;2022-11-15T07:59:19;7.53;;;2.80;;
29246;SDS011;16272;48.188;9.964;2022-11-15T08:01:45;9.47;;;3.33;;
29246;SDS011;16272;48.188;9.964;2022-11-15T08:04:10;8.00;;;3.20;;
29246;SDS011;16272;48.188;9.964;2022-11-15T08:06:36;10.02;;;2.95;;
29246;SDS011;16272;48.188;9.964;2022-11-15T08:09:01;8.37;;;3.00;;
29246;SDS011;16272;48.188;9.964;2022-11-15T08:11:27;9.13;;;3.33;;
29246;SDS011;16272;48.188;9.964;2022-11-15T08:13:52;11.30;;;5.13;;
29246;SDS011;16272;48.188;9.964;2022-11-15T08:16:17;9.80;;;4.40;;
29246;SDS011;16272;48.188;9.964;2022-11-15T08:18:43;11.17;;;4.47;;
29246;SDS011;16272;48.188;9.964;2022-11-15T08:21:09;10.30;;;4.27;;
29246;SDS011;16272;48.188;9.964;2022-11-15T08:23:37;9.25;;;3.80;;
29246;SDS011;16272;48.188;9.964;2022-11-15T08:26:03;9.97;;;3.70;;
29246;SDS011;16272;48.188;9.964;2022-11-15T08:28:29;10.90;;;4.80;;
29246;SDS011;16272;48.188;9.964;2022-11-15T08:30:55;10.85;;;4.38;;
29246;SDS011;16272;48.188;9.964;2022-11-15T08:33:21;10.27;;;4.50;;
29246;SDS011;16272;48.188;9.964;2022-11-15T08:35:46;9.37;;;4.10;;
29246;SDS011;16272;48.188;9.964;2022-11-15T08:38:11;9.93;;;4.07;;
29246;SDS011;16272;48.188;9.964;2022-11-15T08:40:37;9.03;;;3.90;;
29246;SDS011;16272;48.188;9.964;2022-11-15T08:43:02;9.50;;;3.70;;
29246;SDS011;16272;48.188;9.964;2022-11-15T08:45:29;8.90;;;3.70;;
29246;SDS011;16272;48.188;9.964;2022-11-15T08:47:55;9.35;;;3.58;;
29246;SDS011;16272;48.188;9.964;2022-11-15T08:50:20;12.63;;;3.57;;
29246;SDS011;16272;48.188;9.964;2022-11-15T08:52:46;9.17;;;3.73;;
29246;SDS011;16272;48.188;9.964;2022-11-15T08:55:15;9.00;;;4.10;;
29246;SDS011;16272;48.188;9.964;2022-11-15T08:57:40;8.67;;;3.33;;
29246;SDS011;16272;48.188;9.964;2022-11-15T09:00:05;7.93;;;3.30;;
29246;SDS011;16272;48.188;9.964;2022-11-15T09:02:31;8.60;;;3.40;;
29246;SDS011;16272;48.188;9.964;2022-11-15T09:04:56;8.10;;;3.30;;
29246;SDS011;16272;48.188;9.964;2022-11-15T09:07:22;9.35;;;3.83;;
29246;SDS011;16272;48.188;9.964;2022-11-15T09:09:47;9.23;;;3.37;;
29246;SDS011;16272;48.188;9.964;2022-11-15T09:12:13;9.67;;;3.60;;
29246;SDS011;16272;48.188;9.964;2022-11-15T09:14:38;8.70;;;3.50;;
29246;SDS011;16272;48.188;9.964;2022-11-15T09:17:06;9.03;;;3.73;;
29246;SDS011;16272;48.188;9.964;2022-11-15T09:19:33;9.53;;;3.90;;
29246;SDS011;16272;48.188;9.964;2022-11-15T09:21:59;10.23;;;4.45;;
29246;SDS011;16272;48.188;9.964;2022-11-15T09:24:24;10.43;;;4.60;;
29246;SDS011;16272;48.188;9.964;2022-11-15T09:26:50;10.63;;;4.33;;
29246;SDS011;16272;48.188;9.964;2022-11-15T09:29:16;11.65;;;4.95;;
29246;SDS011;16272;48.188;9.964;2022-11-15T09:31:42;10.13;;;4.40;;
29246;SDS011;16272;48.188;9.964;2022-11-15T09:34:07;10.63;;;4.70;;
29246;SDS011;16272;48.188;9.964;2022-11-15T09:36:33;10.90;;;4.53;;
29246;SDS011;16272;48.188;9.964;2022-11-15T09:38:59;16.00;;;5.90;;
29246;SDS011;16272;48.188;9.964;2022-11-15T09:44:54;13.20;;;5.03;;
29246;SDS011;16272;48.188;9.964;2022-11-15T09:50:11;14.40;;;6.28;;
29246;SDS011;16272;48.188;9.964;2022-11-15T09:52:41;14.80;;;5.80;;
29246;SDS011;16272;48.188;9.964;2022-11-15T09:55:10;12.98;;;6.13;;
29246;SDS011;16272;48.188;9.964;2022-11-15T09:57:41;15.43;;;6.27;;
29246;SDS011;16272;48.188;9.964;2022-11-15T10:00:22;16.75;;;6.55;;
29246;SDS011;16272;48.188;9.964;2022-11-15T10:03:12;17.67;;;7.35;;
29246;SDS011;16272;48.188;9.964;2022-11-15T10:05:44;15.68;;;7.05;;
29246;SDS011;16272;48.188;9.964;2022-11-15T10:11:00;23.37;;;12.83;;
29246;SDS011;16272;48.188;9.964;2022-11-15T10:13:30;16.00;;;7.72;;
29246;SDS011;16272;48.188;9.964;2022-11-15T10:16:12;19.23;;;8.68;;
29246;SDS011;16272;48.188;9.964;2022-11-15T10:24:15;15.93;;;6.47;;
29246;SDS011;16272;48.188;9.964;2022-11-15T10:26:48;15.85;;;6.53;;
29246;SDS011;16272;48.188;9.964;2022-11-15T10:29:18;16.27;;;6.90;;
29246;SDS011;16272;48.188;9.964;2022-11-15T10:31:46;15.63;;;6.88;;
29246;SDS011;16272;48.188;9.964;2022-11-15T10:34:13;18.50;;;8.85;;
29246;SDS011;16272;48.188;9.964;2022-11-15T10:37:05;18.27;;;7.80;;
29246;SDS011;16272;48.188;9.964;2022-11-15T10:39:29;15.27;;;6.50;;
29246;SDS011;16272;48.188;9.964;2022-11-15T10:41:55;15.80;;;6.40;;
29246;SDS011;16272;48.188;9.964;2022-11-15T10:44:24;13.43;;;6.30;;
29246;SDS011;16272;48.188;9.964;2022-11-15T10:49:21;14.33;;;5.80;;
29246;SDS011;16272;48.188;9.964;2022-11-15T10:56:51;11.88;;;5.05;;
29246;SDS011;16272;48.188;9.964;2022-11-15T10:59:23;12.13;;;5.15;;
29246;SDS011;16272;48.188;9.964;2022-11-15T11:01:53;12.00;;;4.70;;
29246;SDS011;16272;48.188;9.964;2022-11-15T11:04:19;10.70;;;4.57;;
29246;SDS011;16272;48.188;9.964;2022-11-15T11:06:51;11.57;;;4.60;;
29246;SDS011;16272;48.188;9.964;2022-11-15T11:12:02;10.95;;;4.70;;
29246;SDS011;16272;48.188;9.964;2022-11-15T11:14:30;10.23;;;4.60;;
29246;SDS011;16272;48.188;9.964;2022-11-15T11:25:45;12.13;;;5.57;;
29246;SDS011;16272;48.188;9.964;2022-11-15T11:31:31;10.80;;;4.93;;
29246;SDS011;16272;48.188;9.964;2022-11-15T11:37:02;11.60;;;4.85;;
29246;SDS011;16272;48.188;9.964;2022-11-15T11:48:13;10.90;;;4.38;;
29246;SDS011;16272;48.188;9.964;2022-11-15T11:50:40;10.25;;;4.22;;
29246;SDS011;16272;48.188;9.964;2022-11-15T11:53:14;8.75;;;4.10;;
29246;SDS011;16272;48.188;9.964;2022-11-15T11:55:52;10.68;;;3.97;;
29246;SDS011;16272;48.188;9.964;2022-11-15T11:58:26;9.50;;;3.83;;
29246;SDS011;16272;48.188;9.964;2022-11-15T12:01:04;9.38;;;3.83;;
29246;SDS011;16272;48.188;9.964;2022-11-15T12:03:46;12.13;;;4.95;;
29246;SDS011;16272;48.188;9.964;2022-11-15T12:09:17;11.65;;;5.32;;
29246;SDS011;16272;48.188;9.964;2022-11-15T12:17:16;10.65;;;4.53;;
29246;SDS011;16272;48.188;9.964;2022-11-15T12:19:44;10.93;;;4.25;;
29246;SDS011;16272;48.188;9.964;2022-11-15T12:22:20;13.53;;;4.80;;
29246;SDS011;16272;48.188;9.964;2022-11-15T12:27:44;10.98;;;4.50;;
29246;SDS011;16272;48.188;9.964;2022-11-15T12:30:20;10.27;;;4.80;;
29246;SDS011;16272;48.188;9.964;2022-11-15T12:32:54;11.50;;;4.60;;
29246;SDS011;16272;48.188;9.964;2022-11-15T12:35:32;11.35;;;4.43;;
29246;SDS011;16272;48.188;9.964;2022-11-15T12:38:02;10.63;;;4.63;;
29246;SDS011;16272;48.188;9.964;2022-11-15T12:40:29;11.18;;;4.88;;
29246;SDS011;16272;48.188;9.964;2022-11-15T12:42:58;11.87;;;5.33;;
29246;SDS011;16272;48.188;9.964;2022-11-15T12:45:26;16.25;;;8.02;;
29246;SDS011;16272;48.188;9.964;2022-11-15T12:58:27;12.10;;;5.28;;
29246;SDS011;16272;48.188;9.964;2022-11-15T13:01:09;11.57;;;5.30;;
29246;SDS011;16272;48.188;9.964;2022-11-15T13:03:35;11.55;;;5.22;;
29246;SDS011;16272;48.188;9.964;2022-11-15T13:06:42;13.20;;;5.50;;
29246;SDS011;16272;48.188;9.964;2022-11-15T13:19:57;12.05;;;4.75;;
29246;SDS011;16272;48.188;9.964;2022-11-15T13:22:26;11.07;;;4.93;;
29246;SDS011;16272;48.188;9.964;2022-11-15T13:25:15;10.43;;;4.75;;
29246;SDS011;16272;48.188;9.964;2022-11-15T13:27:47;11.13;;;4.90;;
29246;SDS011;16272;48.188;9.964;2022-11-15T13:30:16;11.73;;;4.75;;
29246;SDS011;16272;48.188;9.964;2022-11-15T13:32:46;11.63;;;5.03;;
29246;SDS011;16272;48.188;9.964;2022-11-15T13:35:22;11.40;;;4.70;;
29246;SDS011;16272;48.188;9.964;2022-11-15T13:37:50;9.65;;;4.53;;
29246;SDS011;16272;48.188;9.964;2022-11-15T13:40:22;14.23;;;4.88;;
29246;SDS011;16272;48.188;9.964;2022-11-15T13:42:55;10.40;;;4.15;;
29246;SDS011;16272;48.188;9.964;2022-11-15T13:45:22;9.07;;;3.92;;
29246;SDS011;16272;48.188;9.964;2022-11-15T13:47:51;9.50;;;3.80;;
29246;SDS011;16272;48.188;9.964;2022-11-15T13:50:20;9.23;;;3.72;;
29246;SDS011;16272;48.188;9.964;2022-11-15T13:52:48;9.50;;;3.80;;
29246;SDS011;16272;48.188;9.964;2022-11-15T13:55:15;10.33;;;3.50;;
29246;SDS011;16272;48.188;9.964;2022-11-15T13:57:59;8.68;;;3.80;;
29246;SDS011;16272;48.188;9.964;2022-11-15T14:00:43;8.68;;;3.72;;
29246;SDS011;16272;48.188;9.964;2022-11-15T14:05:46;8.77;;;3.78;;
29246;SDS011;16272;48.188;9.964;2022-11-15T14:08:32;9.03;;;3.23;;
29246;SDS011;16272;48.188;9.964;2022-11-15T14:13:36;10.20;;;3.90;;
29246;SDS011;16272;48.188;9.964;2022-11-15T14:16:15;10.70;;;4.00;;
29246;SDS011;16272;48.188;9.964;2022-11-15T14:18:44;11.57;;;3.85;;
29246;SDS011;16272;48.188;9.964;2022-11-15T14:21:10;10.27;;;4.50;;
29246;SDS011;16272;48.188;9.964;2022-11-15T14:23:35;11.10;;;4.50;;
29246;SDS011;16272;48.188;9.964;2022-11-15T14:26:01;10.70;;;4.60;;
29246;SDS011;16272;48.188;9.964;2022-11-15T14:30:52;10.00;;;4.57;;
29246;SDS011;16272;48.188;9.964;2022-11-15T14:35:50;10.90;;;4.43;;
29246;SDS011;16272;48.188;9.964;2022-11-15T14:38:17;9.98;;;4.22;;
29246;SDS011;16272;48.188;9.964;2022-11-15T14:40:42;11.37;;;4.17;;
29246;SDS011;16272;48.188;9.964;2022-11-15T14:43:09;9.23;;;4.00;;
29246;SDS011;16272;48.188;9.964;2022-11-15T14:45:38;9.93;;;3.80;;
29246;SDS011;16272;48.188;9.964;2022-11-15T14:48:03;9.38;;;3.95;;
29246;SDS011;16272;48.188;9.964;2022-11-15T14:50:29;9.57;;;3.63;;
29246;SDS011;16272;48.188;9.964;2022-11-15T14:52:55;9.03;;;3.83;;
29246;SDS011;16272;48.188;9.964;2022-11-15T14:55:21;9.77;;;4.07;;
29246;SDS011;16272;48.188;9.964;2022-11-15T14:57:47;11.05;;;4.40;;
29246;SDS011;16272;48.188;9.964;2022-11-15T15:00:12;9.30;;;4.10;;
29246;SDS011;16272;48.188;9.964;2022-11-15T15:02:38;10.20;;;3.83;;
29246;SDS011;16272;48.188;9.964;2022-11-15T15:07:39;11.48;;;4.28;;
29246;SDS011;16272;48.188;9.964;2022-11-15T15:10:04;10.97;;;4.40;;
29246;SDS011;16272;48.188;9.964;2022-11-15T15:12:31;11.57;;;4.38;;
29246;SDS011;16272;48.188;9.964;2022-11-15T15:14:56;9.77;;;4.27;;
29246;SDS011;16272;48.188;9.964;2022-11-15T15:17:22;10.20;;;4.57;;
29246;SDS011;16272;48.188;9.964;2022-11-15T15:19:47;10.67;;;3.60;;
29246;SDS011;16272;48.188;9.964;2022-11-15T15:22:13;11.87;;;4.23;;
29246;SDS011;16272;48.188;9.964;2022-11-15T15:24:43;11.32;;;4.40;;
29246;SDS011;16272;48.188;9.964;2022-11-15T15:27:09;9.75;;;4.35;;
29246;SDS011;16272;48.188;9.964;2022-11-15T15:29:35;10.50;;;4.60;;
29246;SDS011;16272;48.188;9.964;2022-11-15T15:32:02;9.90;;;4.33;;
29246;SDS011;16272;48.188;9.964;2022-11-15T15:34:28;12.17;;;4.47;;
29246;SDS011;16272;48.188;9.964;2022-11-15T15:39:49;10.40;;;4.40;;
29246;SDS011;16272;48.188;9.964;2022-11-15T15:42:21;9.80;;;4.03;;
29246;SDS011;16272;48.188;9.964;2022-11-15T15:44:51;10.10;;;3.80;;
29246;SDS011;16272;48.188;9.964;2022-11-15T15:47:18;10.68;;;4.03;;
29246;SDS011;16272;48.188;9.964;2022-11-15T15:49:48;9.87;;;4.07;;
29246;SDS011;16272;48.188;9.964;2022-11-15T15:52:14;10.73;;;3.78;;
29246;SDS011;16272;48.188;9.964;2022-11-15T15:54:39;10.30;;;4.10;;
29246;SDS011;16272;48.188;9.964;2022-11-15T15:57:05;9.95;;;4.10;;
29246;SDS011;16272;48.188;9.964;2022-11-15T15:59:32;11.57;;;4.47;;
29246;SDS011;16272;48.188;9.964;2022-11-15T16:01:57;10.47;;;4.00;;
29246;SDS011;16272;48.188;9.964;2022-11-15T16:04:22;10.53;;;3.80;;
29246;SDS011;16272;48.188;9.964;2022-11-15T16:06:48;11.43;;;4.03;;
29246;SDS011;16272;48.188;9.964;2022-11-15T16:09:16;11.13;;;3.93;;
29246;SDS011;16272;48.188;9.964;2022-11-15T16:11:46;9.95;;;4.03;;
29246;SDS011;16272;48.188;9.964;2022-11-15T16:14:13;11.57;;;5.25;;
29246;SDS011;16272;48.188;9.964;2022-11-15T16:16:38;13.73;;;5.35;;
29246;SDS011;16272;48.188;9.964;2022-11-15T16:19:03;11.10;;;4.80;;
29246;SDS011;16272;48.188;9.964;2022-11-15T16:21:29;12.93;;;5.23;;
29246;SDS011;16272;48.188;9.964;2022-11-15T16:23:55;12.95;;;5.38;;
29246;SDS011;16272;48.188;9.964;2022-11-15T16:26:21;13.10;;;5.20;;
29246;SDS011;16272;48.188;9.964;2022-11-15T16:28:49;12.70;;;5.18;;
29246;SDS011;16272;48.188;9.964;2022-11-15T16:31:15;13.27;;;5.40;;
29246;SDS011;16272;48.188;9.964;2022-11-15T16:33:43;15.32;;;5.80;;
29246;SDS011;16272;48.188;9.964;2022-11-15T16:36:28;12.20;;;4.73;;
29246;SDS011;16272;48.188;9.964;2022-11-15T16:38:57;9.85;;;3.90;;
29246;SDS011;16272;48.188;9.964;2022-11-15T16:41:23;13.70;;;6.35;;
29246;SDS011;16272;48.188;9.964;2022-11-15T16:43:49;10.93;;;4.93;;
29246;SDS011;16272;48.188;9.964;2022-11-15T16:46:16;11.77;;;4.93;;
29246;SDS011;16272;48.188;9.964;2022-11-15T16:48:50;10.35;;;4.50;;
29246;SDS011;16272;48.188;9.964;2022-11-15T16:51:16;9.38;;;3.90;;
29246;SDS011;16272;48.188;9.964;2022-11-15T16:53:41;10.53;;;3.47;;
29246;SDS011;16272;48.188;9.964;2022-11-15T16:56:27;8.90;;;3.53;;
29246;SDS011;16272;48.188;9.964;2022-11-15T16:58:54;8.43;;;3.10;;
29246;SDS011;16272;48.188;9.964;2022-11-15T17:01:23;10.32;;;4.95;;
29246;SDS011;16272;48.188;9.964;2022-11-15T17:03:50;10.80;;;5.50;;
29246;SDS011;16272;48.188;9.964;2022-11-15T17:06:16;11.75;;;5.35;;
29246;SDS011;16272;48.188;9.964;2022-11-15T17:08:45;12.40;;;5.40;;
29246;SDS011;16272;48.188;9.964;2022-11-15T17:11:16;18.15;;;8.63;;
29246;SDS011;16272;48.188;9.964;2022-11-15T17:13:43;11.38;;;4.90;;